Terminal Aerodrome Forecast
Issued by NWS Portland, ME

Home | Current Version | Previous Version | Text Only | Print | Product List | Glossary On
Versions: 1 2 3 4 5 6 7 8 9 10 11 12 13 14 15 16 17 18 19 20 21
253
FTUS41 KGYX 241720
TAFPWM
TAF
KPWM 241720Z 2418/2518 30007KT P6SM FEW080
     FM242000 22008KT P6SM SKC
     FM250100 VRB03KT P6SM BKN200=

USA.gov is the U.S. government's official web portal to all federal, state and local government web resources and services.